Morgan, Pennsylvania
Current Conditions -  °F | °C
As of 7:00 AM on Thursday 27 Nov 2014 (Local Time) from KAGC Reporting Station
Haze Haze  
Wind Chill: 26°   Ceiling: 700
Heat Index: 32°   Visibility: 2mi
Dew Point: 28°   Wind: 6mph
Humidity: 85%   Direction: NA
Pressure: 30.01"   Gusts: NA
Location:  40.35°N, 80.14°W
Report Text: KAGC 271200Z VRB05KT 2SM BR BKN007 OVC010 00/M02 A3001 RMK AO2 T00001022
Loading
Personal Weather Stations






























Interactive Weather Map New forecast layout! Learn more

10-Day Weather Forecast

Advertisements
Track Severe Weather on mobile